sensor_id;sensor_type;location;lat;lon;timestamp;pressure;altitude;pressure_sealevel;temperature;humidity
64683;BME280;51107;47.652;19.016;2023-07-20T00:00:07;99177.66;;;22.94;70.17
64683;BME280;51107;47.652;19.016;2023-07-20T00:03:10;99174.47;;;22.92;70.89
64683;BME280;51107;47.652;19.016;2023-07-20T00:05:39;99177.31;;;22.85;71.10
64683;BME280;51107;47.652;19.016;2023-07-20T00:08:08;99179.03;;;22.75;71.75
64683;BME280;51107;47.652;19.016;2023-07-20T00:10:36;99179.75;;;22.70;71.30
64683;BME280;51107;47.652;19.016;2023-07-20T00:13:04;99179.53;;;22.71;71.09
64683;BME280;51107;47.652;19.016;2023-07-20T00:15:33;99173.22;;;22.78;70.69
64683;BME280;51107;47.652;19.016;2023-07-20T00:18:02;99172.16;;;22.79;69.97
64683;BME280;51107;47.652;19.016;2023-07-20T00:20:30;99172.41;;;22.77;69.98
64683;BME280;51107;47.652;19.016;2023-07-20T00:22:59;99167.34;;;22.76;70.09
64683;BME280;51107;47.652;19.016;2023-07-20T00:25:27;99159.31;;;22.70;69.70
64683;BME280;51107;47.652;19.016;2023-07-20T00:27:55;99150.06;;;22.73;69.31
64683;BME280;51107;47.652;19.016;2023-07-20T00:30:24;99153.19;;;22.70;69.12
64683;BME280;51107;47.652;19.016;2023-07-20T00:32:52;99148.13;;;22.68;69.51
64683;BME280;51107;47.652;19.016;2023-07-20T00:35:22;99147.59;;;22.66;69.24
64683;BME280;51107;47.652;19.016;2023-07-20T00:37:51;99152.31;;;22.64;69.92
64683;BME280;51107;47.652;19.016;2023-07-20T00:40:21;99151.84;;;22.67;68.51
64683;BME280;51107;47.652;19.016;2023-07-20T00:42:50;99153.38;;;22.63;69.61
64683;BME280;51107;47.652;19.016;2023-07-20T00:45:24;99150.97;;;22.62;69.79
64683;BME280;51107;47.652;19.016;2023-07-20T00:47:54;99148.09;;;22.63;68.37
64683;BME280;51107;47.652;19.016;2023-07-20T00:50:24;99157.88;;;22.63;69.12
64683;BME280;51107;47.652;19.016;2023-07-20T00:52:57;99157.34;;;22.61;68.53
64683;BME280;51107;47.652;19.016;2023-07-20T00:55:29;99162.41;;;22.62;68.98
64683;BME280;51107;47.652;19.016;2023-07-20T00:57:59;99149.91;;;22.63;69.24
64683;BME280;51107;47.652;19.016;2023-07-20T01:00:28;99154.09;;;22.59;69.42
64683;BME280;51107;47.652;19.016;2023-07-20T01:02:56;99144.31;;;22.42;70.56
64683;BME280;51107;47.652;19.016;2023-07-20T01:05:33;99143.53;;;22.42;70.86
64683;BME280;51107;47.652;19.016;2023-07-20T01:08:33;99144.16;;;22.32;69.77
64683;BME280;51107;47.652;19.016;2023-07-20T01:14:05;99140.88;;;22.25;70.98
64683;BME280;51107;47.652;19.016;2023-07-20T01:16:33;99130.66;;;22.33;70.45
64683;BME280;51107;47.652;19.016;2023-07-20T01:19:02;99129.78;;;22.28;71.01
64683;BME280;51107;47.652;19.016;2023-07-20T01:21:59;99131.06;;;22.25;71.15
64683;BME280;51107;47.652;19.016;2023-07-20T01:27:32;99126.16;;;22.17;71.57
64683;BME280;51107;47.652;19.016;2023-07-20T01:32:58;99134.63;;;22.14;70.86
64683;BME280;51107;47.652;19.016;2023-07-20T01:35:30;99132.50;;;22.16;70.38
64683;BME280;51107;47.652;19.016;2023-07-20T01:38:00;99143.19;;;22.21;70.25
64683;BME280;51107;47.652;19.016;2023-07-20T01:40:29;99131.81;;;22.20;70.11
64683;BME280;51107;47.652;19.016;2023-07-20T01:42:58;99130.69;;;22.16;71.07
64683;BME280;51107;47.652;19.016;2023-07-20T01:45:26;99131.13;;;22.13;71.21
64683;BME280;51107;47.652;19.016;2023-07-20T01:47:57;99133.25;;;22.11;72.19
64683;BME280;51107;47.652;19.016;2023-07-20T01:50:25;99131.13;;;22.13;72.06
64683;BME280;51107;47.652;19.016;2023-07-20T01:52:54;99140.63;;;22.09;72.68
64683;BME280;51107;47.652;19.016;2023-07-20T01:55:22;99146.56;;;21.99;72.40
64683;BME280;51107;47.652;19.016;2023-07-20T01:57:50;99137.50;;;21.95;72.42
64683;BME280;51107;47.652;19.016;2023-07-20T02:00:19;99144.16;;;21.98;70.73
64683;BME280;51107;47.652;19.016;2023-07-20T02:02:50;99134.94;;;22.00;67.74
64683;BME280;51107;47.652;19.016;2023-07-20T02:05:18;99125.44;;;22.04;67.78
64683;BME280;51107;47.652;19.016;2023-07-20T02:07:48;99144.00;;;22.04;67.20
64683;BME280;51107;47.652;19.016;2023-07-20T02:10:18;99156.44;;;21.87;69.78
64683;BME280;51107;47.652;19.016;2023-07-20T02:12:46;99165.78;;;21.89;69.93
64683;BME280;51107;47.652;19.016;2023-07-20T02:15:15;99173.09;;;21.82;70.01
64683;BME280;51107;47.652;19.016;2023-07-20T02:17:44;99174.91;;;21.82;67.17
64683;BME280;51107;47.652;19.016;2023-07-20T02:20:13;99178.25;;;21.89;64.84
64683;BME280;51107;47.652;19.016;2023-07-20T02:22:42;99184.91;;;21.92;63.77
64683;BME280;51107;47.652;19.016;2023-07-20T02:25:10;99178.78;;;21.91;64.85
64683;BME280;51107;47.652;19.016;2023-07-20T02:27:39;99181.69;;;21.89;68.10
64683;BME280;51107;47.652;19.016;2023-07-20T02:30:07;99187.56;;;21.92;67.03
64683;BME280;51107;47.652;19.016;2023-07-20T02:32:38;99184.09;;;21.91;64.62
64683;BME280;51107;47.652;19.016;2023-07-20T02:35:07;99190.81;;;21.82;67.37
64683;BME280;51107;47.652;19.016;2023-07-20T02:37:35;99193.56;;;21.87;69.02
64683;BME280;51107;47.652;19.016;2023-07-20T02:40:05;99205.84;;;21.76;70.90
64683;BME280;51107;47.652;19.016;2023-07-20T02:42:35;99201.37;;;21.77;70.35
64683;BME280;51107;47.652;19.016;2023-07-20T02:45:04;99196.34;;;21.63;71.92
64683;BME280;51107;47.652;19.016;2023-07-20T02:47:33;99187.97;;;21.54;72.87
64683;BME280;51107;47.652;19.016;2023-07-20T02:50:02;99193.28;;;21.54;73.59
64683;BME280;51107;47.652;19.016;2023-07-20T02:52:31;99192.00;;;21.57;72.17
64683;BME280;51107;47.652;19.016;2023-07-20T02:55:00;99187.50;;;21.58;69.47
64683;BME280;51107;47.652;19.016;2023-07-20T02:57:29;99194.06;;;21.55;68.93
64683;BME280;51107;47.652;19.016;2023-07-20T02:59:57;99196.16;;;21.53;69.15
64683;BME280;51107;47.652;19.016;2023-07-20T03:02:25;99188.22;;;21.53;69.38
64683;BME280;51107;47.652;19.016;2023-07-20T03:04:54;99189.22;;;21.52;70.24
64683;BME280;51107;47.652;19.016;2023-07-20T03:07:22;99192.22;;;21.55;70.40
64683;BME280;51107;47.652;19.016;2023-07-20T03:09:50;99195.09;;;21.54;71.14
64683;BME280;51107;47.652;19.016;2023-07-20T03:12:19;99194.41;;;21.59;69.94
64683;BME280;51107;47.652;19.016;2023-07-20T03:14:47;99200.41;;;21.54;71.00
64683;BME280;51107;47.652;19.016;2023-07-20T03:17:16;99204.47;;;21.45;70.88
64683;BME280;51107;47.652;19.016;2023-07-20T03:19:45;99198.03;;;21.41;71.73
64683;BME280;51107;47.652;19.016;2023-07-20T03:22:14;99193.19;;;21.37;71.76
64683;BME280;51107;47.652;19.016;2023-07-20T03:24:42;99204.47;;;21.45;70.65
64683;BME280;51107;47.652;19.016;2023-07-20T03:27:11;99195.13;;;21.42;71.14
64683;BME280;51107;47.652;19.016;2023-07-20T03:29:39;99201.09;;;21.49;70.63
64683;BME280;51107;47.652;19.016;2023-07-20T03:32:08;99215.63;;;21.47;71.39
64683;BME280;51107;47.652;19.016;2023-07-20T03:34:36;99213.56;;;21.49;72.32
64683;BME280;51107;47.652;19.016;2023-07-20T03:37:05;99219.88;;;21.48;72.85
64683;BME280;51107;47.652;19.016;2023-07-20T03:39:33;99217.78;;;21.50;73.18
64683;BME280;51107;47.652;19.016;2023-07-20T03:42:02;99223.69;;;21.52;75.54
64683;BME280;51107;47.652;19.016;2023-07-20T03:44:30;99221.59;;;21.54;74.78
64683;BME280;51107;47.652;19.016;2023-07-20T03:46:58;99223.69;;;21.52;75.77
64683;BME280;51107;47.652;19.016;2023-07-20T03:49:27;99221.25;;;21.50;76.16
64683;BME280;51107;47.652;19.016;2023-07-20T03:51:56;99232.56;;;21.46;76.91
64683;BME280;51107;47.652;19.016;2023-07-20T03:54:24;99212.31;;;21.40;77.75
64683;BME280;51107;47.652;19.016;2023-07-20T03:56:52;99223.03;;;21.33;77.93
64683;BME280;51107;47.652;19.016;2023-07-20T03:59:21;99223.84;;;21.33;79.16
64683;BME280;51107;47.652;19.016;2023-07-20T04:01:49;99219.34;;;21.34;79.88
64683;BME280;51107;47.652;19.016;2023-07-20T04:04:17;99224.72;;;21.39;80.23
64683;BME280;51107;47.652;19.016;2023-07-20T04:06:45;99218.16;;;21.42;79.37
64683;BME280;51107;47.652;19.016;2023-07-20T04:09:14;99221.41;;;21.44;81.20
64683;BME280;51107;47.652;19.016;2023-07-20T04:11:42;99227.72;;;21.43;79.70
64683;BME280;51107;47.652;19.016;2023-07-20T04:14:11;99233.28;;;21.41;80.67
64683;BME280;51107;47.652;19.016;2023-07-20T04:16:39;99223.00;;;21.45;80.99
64683;BME280;51107;47.652;19.016;2023-07-20T04:19:08;99221.41;;;21.44;81.17
64683;BME280;51107;47.652;19.016;2023-07-20T04:21:40;99210.56;;;21.45;81.23
64683;BME280;51107;47.652;19.016;2023-07-20T04:24:11;99215.84;;;21.45;81.06
64683;BME280;51107;47.652;19.016;2023-07-20T04:26:40;99211.69;;;21.49;81.87
64683;BME280;51107;47.652;19.016;2023-07-20T04:29:08;99209.84;;;21.50;81.45
64683;BME280;51107;47.652;19.016;2023-07-20T04:31:37;99208.59;;;21.52;82.61
64683;BME280;51107;47.652;19.016;2023-07-20T04:34:05;99219.53;;;21.56;82.67
64683;BME280;51107;47.652;19.016;2023-07-20T04:36:34;99217.94;;;21.55;82.16
64683;BME280;51107;47.652;19.016;2023-07-20T04:39:02;99217.13;;;21.54;82.31
64683;BME280;51107;47.652;19.016;2023-07-20T04:41:35;99215.03;;;21.57;82.19
64683;BME280;51107;47.652;19.016;2023-07-20T04:44:04;99214.34;;;21.61;83.22
64683;BME280;51107;47.652;19.016;2023-07-20T04:46:33;99211.69;;;21.61;83.34
64683;BME280;51107;47.652;19.016;2023-07-20T04:49:02;99212.72;;;21.60;83.64
64683;BME280;51107;47.652;19.016;2023-07-20T04:51:31;99203.38;;;21.69;82.56
64683;BME280;51107;47.652;19.016;2023-07-20T04:54:00;99210.91;;;21.78;81.30
64683;BME280;51107;47.652;19.016;2023-07-20T04:56:29;99216.16;;;21.89;79.86
64683;BME280;51107;47.652;19.016;2023-07-20T04:58:58;99212.97;;;22.04;77.67
64683;BME280;51107;47.652;19.016;2023-07-20T05:01:26;99213.47;;;22.18;76.43
64683;BME280;51107;47.652;19.016;2023-07-20T05:03:55;99219.25;;;22.32;75.55
64683;BME280;51107;47.652;19.016;2023-07-20T05:06:23;99218.63;;;22.42;74.34
64683;BME280;51107;47.652;19.016;2023-07-20T05:08:52;99222.91;;;22.43;73.47
64683;BME280;51107;47.652;19.016;2023-07-20T05:11:20;99218.22;;;22.50;75.67
64683;BME280;51107;47.652;19.016;2023-07-20T05:13:49;99223.03;;;22.53;74.51
64683;BME280;51107;47.652;19.016;2023-07-20T05:16:17;99217.50;;;22.55;73.80
64683;BME280;51107;47.652;19.016;2023-07-20T05:18:46;99228.44;;;22.59;73.74
64683;BME280;51107;47.652;19.016;2023-07-20T05:21:14;99213.63;;;22.63;75.79
64683;BME280;51107;47.652;19.016;2023-07-20T05:23:43;99221.09;;;22.66;71.21
64683;BME280;51107;47.652;19.016;2023-07-20T05:26:13;99214.03;;;22.71;72.98
64683;BME280;51107;47.652;19.016;2023-07-20T05:28:41;99220.38;;;22.70;63.27
64683;BME280;51107;47.652;19.016;2023-07-20T05:31:09;99216.19;;;22.75;62.96
64683;BME280;51107;47.652;19.016;2023-07-20T05:33:38;99222.38;;;22.80;61.69
64683;BME280;51107;47.652;19.016;2023-07-20T05:36:07;99227.69;;;22.80;62.42
64683;BME280;51107;47.652;19.016;2023-07-20T05:38:35;99235.44;;;23.04;62.01
64683;BME280;51107;47.652;19.016;2023-07-20T05:41:03;99237.59;;;23.24;60.49
64683;BME280;51107;47.652;19.016;2023-07-20T05:43:32;99242.66;;;23.26;59.42
64683;BME280;51107;47.652;19.016;2023-07-20T05:46:00;99238.19;;;23.31;59.33
64683;BME280;51107;47.652;19.016;2023-07-20T05:48:29;99255.25;;;23.35;60.50
64683;BME280;51107;47.652;19.016;2023-07-20T05:50:57;99256.38;;;23.39;59.77
64683;BME280;51107;47.652;19.016;2023-07-20T05:53:26;99255.00;;;23.37;59.03
64683;BME280;51107;47.652;19.016;2023-07-20T05:55:54;99252.34;;;23.37;58.73
64683;BME280;51107;47.652;19.016;2023-07-20T05:58:23;99249.00;;;23.47;58.25
64683;BME280;51107;47.652;19.016;2023-07-20T06:00:51;99243.12;;;23.45;59.12
64683;BME280;51107;47.652;19.016;2023-07-20T06:03:20;99245.34;;;23.53;58.85
64683;BME280;51107;47.652;19.016;2023-07-20T06:05:50;99244.06;;;23.55;58.15
64683;BME280;51107;47.652;19.016;2023-07-20T06:08:18;99254.47;;;23.62;58.08
64683;BME280;51107;47.652;19.016;2023-07-20T06:10:50;99248.69;;;23.65;57.29
64683;BME280;51107;47.652;19.016;2023-07-20T06:13:19;99257.78;;;23.69;57.54
64683;BME280;51107;47.652;19.016;2023-07-20T06:15:48;99265.84;;;23.80;57.27
64683;BME280;51107;47.652;19.016;2023-07-20T06:18:16;99279.81;;;23.92;56.73
64683;BME280;51107;47.652;19.016;2023-07-20T06:20:50;99271.22;;;23.85;57.54
64683;BME280;51107;47.652;19.016;2023-07-20T06:23:19;99271.41;;;24.00;56.17
64683;BME280;51107;47.652;19.016;2023-07-20T06:25:48;99268.19;;;23.98;57.38
64683;BME280;51107;47.652;19.016;2023-07-20T06:28:16;99272.44;;;23.99;57.05
64683;BME280;51107;47.652;19.016;2023-07-20T06:30:46;99271.91;;;23.97;58.18
64683;BME280;51107;47.652;19.016;2023-07-20T06:33:15;99263.34;;;23.95;58.40
64683;BME280;51107;47.652;19.016;2023-07-20T06:35:43;99270.34;;;24.01;57.39
64683;BME280;51107;47.652;19.016;2023-07-20T06:38:12;99281.12;;;24.17;56.88
64683;BME280;51107;47.652;19.016;2023-07-20T06:40:43;99272.44;;;24.27;55.95
64683;BME280;51107;47.652;19.016;2023-07-20T06:43:11;99275.03;;;24.21;56.59
64683;BME280;51107;47.652;19.016;2023-07-20T06:45:50;99280.72;;;24.30;55.04
64683;BME280;51107;47.652;19.016;2023-07-20T06:48:19;99279.47;;;24.43;54.92
64683;BME280;51107;47.652;19.016;2023-07-20T06:50:47;99295.00;;;24.51;54.48
64683;BME280;51107;47.652;19.016;2023-07-20T06:53:15;99293.16;;;24.57;53.92
64683;BME280;51107;47.652;19.016;2023-07-20T06:55:45;99280.41;;;24.59;54.56
64683;BME280;51107;47.652;19.016;2023-07-20T06:58:15;99285.00;;;24.64;54.26
64683;BME280;51107;47.652;19.016;2023-07-20T07:00:43;99299.84;;;24.97;54.18
64683;BME280;51107;47.652;19.016;2023-07-20T07:03:12;99288.38;;;24.91;53.70
64683;BME280;51107;47.652;19.016;2023-07-20T07:05:41;99290.28;;;24.96;55.19
64683;BME280;51107;47.652;19.016;2023-07-20T07:08:10;99292.50;;;25.15;55.36
64683;BME280;51107;47.652;19.016;2023-07-20T07:10:38;99290.44;;;25.27;54.48
64683;BME280;51107;47.652;19.016;2023-07-20T07:13:06;99294.03;;;25.53;52.73
64683;BME280;51107;47.652;19.016;2023-07-20T07:15:35;99302.59;;;25.55;51.94
64683;BME280;51107;47.652;19.016;2023-07-20T07:18:06;99305.81;;;25.63;50.39
64683;BME280;51107;47.652;19.016;2023-07-20T07:20:34;99297.03;;;25.83;50.81
64683;BME280;51107;47.652;19.016;2023-07-20T07:23:02;99299.19;;;25.91;52.00
64683;BME280;51107;47.652;19.016;2023-07-20T07:25:31;99313.16;;;26.14;48.73
64683;BME280;51107;47.652;19.016;2023-07-20T07:28:00;99309.72;;;26.13;49.74
64683;BME280;51107;47.652;19.016;2023-07-20T07:30:28;99297.69;;;26.21;50.24
64683;BME280;51107;47.652;19.016;2023-07-20T07:32:58;99289.12;;;26.24;47.38
64683;BME280;51107;47.652;19.016;2023-07-20T07:35:27;99297.16;;;26.34;49.91
64683;BME280;51107;47.652;19.016;2023-07-20T07:37:55;99298.78;;;26.35;49.26
64683;BME280;51107;47.652;19.016;2023-07-20T07:40:41;99279.25;;;26.04;47.75
64683;BME280;51107;47.652;19.016;2023-07-20T07:43:10;99290.75;;;26.51;50.90
64683;BME280;51107;47.652;19.016;2023-07-20T07:45:38;99289.69;;;26.62;48.42
64683;BME280;51107;47.652;19.016;2023-07-20T07:48:07;99288.59;;;26.58;46.97
64683;BME280;51107;47.652;19.016;2023-07-20T07:50:36;99300.13;;;26.38;48.35
64683;BME280;51107;47.652;19.016;2023-07-20T07:53:04;99296.62;;;26.27;47.08
64683;BME280;51107;47.652;19.016;2023-07-20T07:55:33;99302.78;;;26.33;48.45
64683;BME280;51107;47.652;19.016;2023-07-20T07:58:01;99291.28;;;26.06;48.54
64683;BME280;51107;47.652;19.016;2023-07-20T08:00:29;99294.47;;;26.14;48.40
64683;BME280;51107;47.652;19.016;2023-07-20T08:02:57;99298.44;;;26.01;48.92
64683;BME280;51107;47.652;19.016;2023-07-20T08:05:26;99299.75;;;25.93;48.86
64683;BME280;51107;47.652;19.016;2023-07-20T08:07:54;99307.19;;;25.91;47.93
64683;BME280;51107;47.652;19.016;2023-07-20T08:10:23;99310.91;;;25.80;48.24
64683;BME280;51107;47.652;19.016;2023-07-20T08:12:51;99314.25;;;25.39;49.23
64683;BME280;51107;47.652;19.016;2023-07-20T08:15:20;99318.00;;;25.43;49.24
64683;BME280;51107;47.652;19.016;2023-07-20T08:17:48;99318.28;;;25.41;51.63
64683;BME280;51107;47.652;19.016;2023-07-20T08:20:20;99322.25;;;25.39;49.86
64683;BME280;51107;47.652;19.016;2023-07-20T08:22:55;99318.13;;;25.26;50.86
64683;BME280;51107;47.652;19.016;2023-07-20T08:25:24;99325.72;;;25.39;48.93
64683;BME280;51107;47.652;19.016;2023-07-20T08:27:52;99317.75;;;25.45;47.66
64683;BME280;51107;47.652;19.016;2023-07-20T08:30:21;99322.22;;;25.34;48.09
64683;BME280;51107;47.652;19.016;2023-07-20T08:32:51;99325.66;;;25.29;48.82
64683;BME280;51107;47.652;19.016;2023-07-20T08:35:19;99327.16;;;25.15;50.25
64683;BME280;51107;47.652;19.016;2023-07-20T08:37:50;99330.53;;;25.48;48.17
64683;BME280;51107;47.652;19.016;2023-07-20T08:40:18;99333.13;;;25.32;47.75
64683;BME280;51107;47.652;19.016;2023-07-20T08:42:46;99344.06;;;25.36;48.44
64683;BME280;51107;47.652;19.016;2023-07-20T08:45:16;99356.75;;;25.61;45.65
64683;BME280;51107;47.652;19.016;2023-07-20T08:47:45;99352.66;;;25.43;46.85
64683;BME280;51107;47.652;19.016;2023-07-20T08:50:16;99354.81;;;25.46;46.65
64683;BME280;51107;47.652;19.016;2023-07-20T08:52:44;99355.03;;;25.39;46.83
64683;BME280;51107;47.652;19.016;2023-07-20T08:55:13;99350.78;;;25.43;46.69
64683;BME280;51107;47.652;19.016;2023-07-20T08:57:44;99357.19;;;25.37;46.67
64683;BME280;51107;47.652;19.016;2023-07-20T09:00:14;99361.44;;;25.38;47.33
64683;BME280;51107;47.652;19.016;2023-07-20T09:02:45;99360.06;;;25.36;47.31
64683;BME280;51107;47.652;19.016;2023-07-20T09:05:14;99363.00;;;25.34;46.69
64683;BME280;51107;47.652;19.016;2023-07-20T09:07:43;99371.41;;;25.16;48.32
64683;BME280;51107;47.652;19.016;2023-07-20T09:10:12;99371.97;;;25.23;47.62
64683;BME280;51107;47.652;19.016;2023-07-20T09:12:43;99376.69;;;25.10;49.38
64683;BME280;51107;47.652;19.016;2023-07-20T09:15:11;99381.97;;;25.00;50.65
64683;BME280;51107;47.652;19.016;2023-07-20T09:17:45;99379.06;;;25.07;48.78
64683;BME280;51107;47.652;19.016;2023-07-20T09:20:18;99383.47;;;25.29;48.82
64683;BME280;51107;47.652;19.016;2023-07-20T09:22:50;99395.59;;;25.47;46.46
64683;BME280;51107;47.652;19.016;2023-07-20T09:25:22;99390.03;;;25.53;47.05
64683;BME280;51107;47.652;19.016;2023-07-20T09:27:53;99391.34;;;25.51;46.89
64683;BME280;51107;47.652;19.016;2023-07-20T09:30:25;99403.41;;;25.58;46.02
64683;BME280;51107;47.652;19.016;2023-07-20T09:32:58;99378.59;;;26.32;49.06
64683;BME280;51107;47.652;19.016;2023-07-20T09:35:27;99380.50;;;26.98;43.74
64683;BME280;51107;47.652;19.016;2023-07-20T09:38:09;99373.44;;;27.59;45.59
64683;BME280;51107;47.652;19.016;2023-07-20T09:40:42;99358.84;;;28.01;41.94
64683;BME280;51107;47.652;19.016;2023-07-20T09:43:15;99364.81;;;27.77;43.75
64683;BME280;51107;47.652;19.016;2023-07-20T09:45:47;99369.22;;;27.48;43.90
64683;BME280;51107;47.652;19.016;2023-07-20T09:48:24;99360.06;;;27.64;44.09
64683;BME280;51107;47.652;19.016;2023-07-20T09:50:56;99359.91;;;28.00;41.77
64683;BME280;51107;47.652;19.016;2023-07-20T09:53:25;99361.94;;;28.24;41.20
64683;BME280;51107;47.652;19.016;2023-07-20T09:55:55;99355.31;;;28.51;43.78
64683;BME280;51107;47.652;19.016;2023-07-20T09:58:25;99361.69;;;28.89;41.22
64683;BME280;51107;47.652;19.016;2023-07-20T10:00:56;99355.59;;;29.08;40.25
64683;BME280;51107;47.652;19.016;2023-07-20T10:03:29;99360.72;;;29.09;39.92
64683;BME280;51107;47.652;19.016;2023-07-20T10:06:06;99362.50;;;29.19;40.35
64683;BME280;51107;47.652;19.016;2023-07-20T10:08:39;99354.88;;;29.31;39.76
64683;BME280;51107;47.652;19.016;2023-07-20T10:11:12;99350.25;;;29.37;39.45
64683;BME280;51107;47.652;19.016;2023-07-20T10:13:44;99373.47;;;29.47;38.82
64683;BME280;51107;47.652;19.016;2023-07-20T10:16:26;99372.25;;;29.58;38.27
64683;BME280;51107;47.652;19.016;2023-07-20T10:19:07;99371.41;;;29.63;37.90
64683;BME280;51107;47.652;19.016;2023-07-20T10:21:42;99369.28;;;29.60;39.02
64683;BME280;51107;47.652;19.016;2023-07-20T10:24:13;99362.91;;;29.56;34.96
64683;BME280;51107;47.652;19.016;2023-07-20T10:26:43;99370.91;;;29.61;36.68
64683;BME280;51107;47.652;19.016;2023-07-20T10:29:12;99369.25;;;29.84;37.50
64683;BME280;51107;47.652;19.016;2023-07-20T10:31:42;99361.75;;;30.05;36.35
64683;BME280;51107;47.652;19.016;2023-07-20T10:34:12;99363.06;;;30.08;36.65
64683;BME280;51107;47.652;19.016;2023-07-20T10:36:44;99365.16;;;30.30;39.60
64683;BME280;51107;47.652;19.016;2023-07-20T10:39:25;99363.13;;;30.22;36.48
64683;BME280;51107;47.652;19.016;2023-07-20T10:42:15;99377.06;;;30.24;36.91
64683;BME280;51107;47.652;19.016;2023-07-20T10:44:44;99386.88;;;30.14;36.55
64683;BME280;51107;47.652;19.016;2023-07-20T10:47:14;99393.63;;;30.12;36.18
64683;BME280;51107;47.652;19.016;2023-07-20T10:49:58;99402.19;;;29.95;35.58
64683;BME280;51107;47.652;19.016;2023-07-20T10:52:41;99394.00;;;29.81;36.10
64683;BME280;51107;47.652;19.016;2023-07-20T10:55:14;99395.06;;;29.85;34.82
64683;BME280;51107;47.652;19.016;2023-07-20T10:57:43;99382.22;;;29.58;36.68
64683;BME280;51107;47.652;19.016;2023-07-20T11:00:31;99369.75;;;29.67;37.42
64683;BME280;51107;47.652;19.016;2023-07-20T11:03:00;99375.97;;;29.87;36.26
64683;BME280;51107;47.652;19.016;2023-07-20T11:05:37;99369.16;;;29.94;35.09
64683;BME280;51107;47.652;19.016;2023-07-20T11:08:10;99380.00;;;29.84;34.79
64683;BME280;51107;47.652;19.016;2023-07-20T11:10:39;99377.00;;;29.67;36.25
64683;BME280;51107;47.652;19.016;2023-07-20T11:13:19;99371.75;;;29.56;35.82
64683;BME280;51107;47.652;19.016;2023-07-20T11:16:01;99373.53;;;29.66;37.75
64683;BME280;51107;47.652;19.016;2023-07-20T11:18:33;99367.56;;;29.93;35.79
64683;BME280;51107;47.652;19.016;2023-07-20T11:21:01;99368.72;;;29.87;34.65
64683;BME280;51107;47.652;19.016;2023-07-20T11:23:31;99362.03;;;29.85;36.49
64683;BME280;51107;47.652;19.016;2023-07-20T11:26:01;99371.91;;;29.65;37.03
64683;BME280;51107;47.652;19.016;2023-07-20T11:28:30;99372.16;;;29.69;36.60
64683;BME280;51107;47.652;19.016;2023-07-20T11:30:59;99361.75;;;29.62;37.31
64683;BME280;51107;47.652;19.016;2023-07-20T11:33:27;99353.91;;;29.65;35.52
64683;BME280;51107;47.652;19.016;2023-07-20T11:35:56;99353.66;;;29.67;37.14
64683;BME280;51107;47.652;19.016;2023-07-20T11:38:24;99344.69;;;29.53;37.02
64683;BME280;51107;47.652;19.016;2023-07-20T11:40:53;99355.31;;;29.63;36.45
64683;BME280;51107;47.652;19.016;2023-07-20T11:43:23;99348.62;;;29.60;35.91
64683;BME280;51107;47.652;19.016;2023-07-20T11:45:52;99359.03;;;29.67;34.68
64683;BME280;51107;47.652;19.016;2023-07-20T11:48:20;99359.66;;;29.78;34.09
64683;BME280;51107;47.652;19.016;2023-07-20T11:50:49;99370.09;;;29.85;33.84
64683;BME280;51107;47.652;19.016;2023-07-20T11:53:18;99365.66;;;29.94;34.04
64683;BME280;51107;47.652;19.016;2023-07-20T11:55:47;99365.75;;;29.83;34.43
64683;BME280;51107;47.652;19.016;2023-07-20T11:58:15;99362.56;;;29.87;34.23
64683;BME280;51107;47.652;19.016;2023-07-20T12:00:45;99374.34;;;29.42;35.60
64683;BME280;51107;47.652;19.016;2023-07-20T12:03:14;99363.47;;;29.53;35.06
64683;BME280;51107;47.652;19.016;2023-07-20T12:05:42;99362.06;;;29.60;33.92
64683;BME280;51107;47.652;19.016;2023-07-20T12:08:29;99358.59;;;29.79;34.35
64683;BME280;51107;47.652;19.016;2023-07-20T12:10:57;99357.56;;;29.75;33.55
64683;BME280;51107;47.652;19.016;2023-07-20T12:13:45;99355.66;;;29.75;33.64
64683;BME280;51107;47.652;19.016;2023-07-20T12:16:15;99366.34;;;29.80;33.83
64683;BME280;51107;47.652;19.016;2023-07-20T12:18:43;99357.62;;;29.70;33.96
64683;BME280;51107;47.652;19.016;2023-07-20T12:21:12;99363.97;;;29.79;34.34
64683;BME280;51107;47.652;19.016;2023-07-20T12:23:41;99356.25;;;29.72;36.04
64683;BME280;51107;47.652;19.016;2023-07-20T12:26:10;99365.75;;;29.83;32.19
64683;BME280;51107;47.652;19.016;2023-07-20T12:28:40;99356.34;;;29.43;34.41
64683;BME280;51107;47.652;19.016;2023-07-20T12:31:09;99351.94;;;29.28;35.79
64683;BME280;51107;47.652;19.016;2023-07-20T12:33:38;99353.37;;;29.44;35.77
64683;BME280;51107;47.652;19.016;2023-07-20T12:36:08;99358.94;;;29.29;36.13
64683;BME280;51107;47.652;19.016;2023-07-20T12:38:37;99346.34;;;29.24;34.64
64683;BME280;51107;47.652;19.016;2023-07-20T12:41:05;99358.63;;;29.30;35.94
64683;BME280;51107;47.652;19.016;2023-07-20T12:43:33;99353.56;;;29.24;37.99
64683;BME280;51107;47.652;19.016;2023-07-20T12:46:02;99350.25;;;29.37;37.17
64683;BME280;51107;47.652;19.016;2023-07-20T12:48:30;99346.66;;;29.47;33.09
64683;BME280;51107;47.652;19.016;2023-07-20T12:50:59;99351.44;;;29.26;32.69
64683;BME280;51107;47.652;19.016;2023-07-20T12:53:28;99359.31;;;29.12;32.51
64683;BME280;51107;47.652;19.016;2023-07-20T12:55:56;99347.09;;;29.01;33.07
64683;BME280;51107;47.652;19.016;2023-07-20T12:58:25;99346.94;;;29.16;32.71
64683;BME280;51107;47.652;19.016;2023-07-20T13:00:54;99344.78;;;29.18;32.81
64683;BME280;51107;47.652;19.016;2023-07-20T13:03:22;99346.69;;;29.18;32.54
64683;BME280;51107;47.652;19.016;2023-07-20T13:05:54;99338.56;;;29.23;31.96
64683;BME280;51107;47.652;19.016;2023-07-20T13:08:25;99345.53;;;29.24;32.61
64683;BME280;51107;47.652;19.016;2023-07-20T13:10:55;99342.56;;;29.01;33.89
64683;BME280;51107;47.652;19.016;2023-07-20T13:13:23;99343.25;;;28.83;34.81